Time;durP1;ratioP1;P1;durP2;ratioP2;P2;SDS_P1;SDS_P2;PMS_P1;PMS_P2;Temp;Humidity;BMP_temperature;BMP_pressure;BME280_temperature;BME280_humidity;BME280_pressure;Samples;Min_cycle;Max_cycle;Signal;HPM_P1;HPM_P2
2022/03/12 00:01:16;;;;;;;5.50;4.10;;;;;;;-3.31;47.08;98854.81;6181866;28;20604;-67
2022/03/12 00:04:19;;;;;;;9.30;4.10;;;;;;;-3.39;47.04;98847.09;6189546;28;20237;-68
2022/03/12 00:07:21;;;;;;;8.13;4.57;;;;;;;-3.24;46.60;98845.31;6178047;28;20233;-67
2022/03/12 00:10:23;;;;;;;7.53;4.53;;;;;;;-3.27;47.03;98845.31;6177925;28;20598;-67
2022/03/12 00:13:26;;;;;;;8.13;4.00;;;;;;;-3.36;47.52;98849.69;6178758;28;20240;-66
2022/03/12 00:16:29;;;;;;;5.87;4.03;;;;;;;-3.42;48.07;98849.72;6205574;28;20224;-67
2022/03/12 00:19:32;;;;;;;6.13;4.00;;;;;;;-3.32;46.53;98852.25;6178060;28;20244;-68
2022/03/12 00:22:36;;;;;;;9.37;4.27;;;;;;;-3.36;46.98;98843.66;6183176;28;20604;-67
2022/03/12 00:25:41;;;;;;;8.83;3.63;;;;;;;-3.27;46.84;98845.31;6182907;28;20245;-67
2022/03/12 00:28:44;;;;;;;5.40;3.37;;;;;;;-3.23;45.85;98849.59;6178375;28;20229;-67
2022/03/12 00:31:53;;;;;;;5.83;3.73;;;;;;;-3.33;46.55;98855.69;6176999;28;20356;-67
2022/03/12 00:34:55;;;;;;;5.73;3.93;;;;;;;-3.36;46.64;98851.41;6177691;28;20788;-68
2022/03/12 00:37:58;;;;;;;5.67;3.20;;;;;;;-3.42;47.16;98856.59;6187357;28;20239;-67
2022/03/12 00:41:04;;;;;;;10.67;4.30;;;;;;;-3.29;45.54;98852.25;6157048;28;20324;-67
2022/03/12 00:44:06;;;;;;;5.43;3.63;;;;;;;-3.21;45.38;98851.31;6178717;28;20732;-68
2022/03/12 00:47:08;;;;;;;8.73;4.27;;;;;;;-3.14;45.25;98860.72;6195140;28;20239;-67
2022/03/12 00:50:10;;;;;;;5.10;3.93;;;;;;;-2.99;44.35;98852.84;6180825;28;20231;-68
2022/03/12 00:53:12;;;;;;;5.33;3.60;;;;;;;-3.04;44.76;98854.63;6179010;28;20380;-67
2022/03/12 00:56:14;;;;;;;7.07;3.83;;;;;;;-3.16;46.16;98848.69;6177459;28;20229;-66
2022/03/12 00:59:16;;;;;;;5.67;3.73;;;;;;;-3.26;46.05;98850.47;6177666;28;20240;-68
2022/03/12 01:02:18;;;;;;;5.30;3.20;;;;;;;-3.29;44.91;98845.31;6178104;28;20247;-67
2022/03/12 01:05:42;;;;;;;6.63;3.80;;;;;;;-3.22;44.98;98849.59;6194581;28;20574;-68
2022/03/12 01:08:47;;;;;;;5.20;3.33;;;;;;;-3.23;45.67;98844.44;6180871;28;20231;-68
2022/03/12 01:11:49;;;;;;;6.97;3.80;;;;;;;-3.28;45.01;98841.88;6182172;28;20232;-68
2022/03/12 01:14:52;;;;;;;6.13;3.53;;;;;;;-3.11;43.86;98844.38;6183589;28;20263;-67
2022/03/12 01:17:54;;;;;;;5.83;3.67;;;;;;;-3.22;44.97;98846.16;6181426;28;20256;-66
2022/03/12 01:21:06;;;;;;;6.30;3.90;;;;;;;-3.28;44.84;98838.44;6197261;28;20620;-67
2022/03/12 01:24:08;;;;;;;3.47;3.07;;;;;;;-3.37;45.42;98841.94;6199644;28;20225;-67
2022/03/12 01:27:10;;;;;;;5.87;3.70;;;;;;;-3.48;45.55;98842.00;6193466;28;20236;-67
2022/03/12 01:30:13;;;;;;;5.67;3.27;;;;;;;-3.60;46.13;98844.69;6181796;28;20244;-67
2022/03/12 01:33:16;;;;;;;7.43;3.70;;;;;;;-3.65;46.05;98850.72;6197288;28;20202;-68
2022/03/12 01:36:18;;;;;;;4.90;3.27;;;;;;;-3.62;45.36;98842.97;6181314;28;20759;-68
2022/03/12 01:39:20;;;;;;;5.47;3.17;;;;;;;-3.41;44.44;98838.53;6181654;28;20685;-67
2022/03/12 01:42:26;;;;;;;5.30;3.00;;;;;;;-3.53;45.30;98845.50;6182325;28;20228;-68
2022/03/12 01:45:28;;;;;;;6.37;3.20;;;;;;;-3.43;43.35;98849.72;6200878;28;20228;-68
2022/03/12 01:48:30;;;;;;;5.90;3.20;;;;;;;-3.45;44.12;98842.00;6187737;28;20631;-68
2022/03/12 01:51:33;;;;;;;5.63;3.20;;;;;;;-3.55;44.76;98836.91;6196297;28;20225;-67
2022/03/12 01:54:38;;;;;;;6.23;3.20;;;;;;;-3.49;43.97;98842.00;6181503;28;20221;-67
2022/03/12 01:57:41;;;;;;;5.60;2.87;;;;;;;-3.31;42.40;98848.81;6188473;28;20380;-67
2022/03/12 02:00:46;;;;;;;4.70;2.77;;;;;;;-3.40;43.50;98847.16;6164133;28;20534;-67
2022/03/12 02:03:48;;;;;;;6.10;2.97;;;;;;;-3.48;43.38;98847.16;6181783;28;20478;-67
2022/03/12 02:06:52;;;;;;;4.70;3.47;;;;;;;-3.53;44.17;98848.94;6180110;28;20232;-68
2022/03/12 02:09:54;;;;;;;4.80;2.97;;;;;;;-3.62;43.18;98855.88;6181214;28;20704;-68
2022/03/12 02:12:56;;;;;;;5.37;3.20;;;;;;;-3.62;44.05;98858.44;6181602;28;20237;-67
2022/03/12 02:16:07;;;;;;;8.10;3.33;;;;;;;-3.64;43.19;98853.28;6190157;28;20229;-69
2022/03/12 02:19:09;;;;;;;5.87;3.87;;;;;;;-3.57;43.47;98859.25;6186978;28;20236;-68
2022/03/12 02:22:15;;;;;;;4.07;2.93;;;;;;;-3.75;45.49;98853.34;6197066;28;20233;-68
2022/03/12 02:25:17;;;;;;;4.93;3.20;;;;;;;-3.64;43.06;98860.16;6193494;28;20623;-68
2022/03/12 02:28:19;;;;;;;5.90;2.67;;;;;;;-3.66;43.56;98864.47;6180909;28;20237;-68
2022/03/12 02:31:24;;;;;;;4.43;2.70;;;;;;;-3.27;38.91;98856.50;6194813;28;20259;-68
2022/03/12 02:34:31;;;;;;;3.60;2.30;;;;;;;-3.21;39.53;98858.19;6181771;28;20375;-67
2022/03/12 02:37:33;;;;;;;6.47;2.70;;;;;;;-3.21;39.10;98856.47;6179214;28;20705;-67
2022/03/12 02:40:36;;;;;;;3.07;2.30;;;;;;;-3.26;39.81;98842.72;6180930;28;20237;-67
2022/03/12 02:43:43;;;;;;;7.00;2.87;;;;;;;-3.10;40.07;98853.81;6180228;28;20231;-68
2022/03/12 02:47:23;;;;;;;4.47;2.60;;;;;;;-3.26;40.56;98858.22;6199869;28;20605;-67
2022/03/12 02:50:25;;;;;;;4.77;2.57;;;;;;;-3.37;41.26;98857.44;6185522;28;20233;-68
2022/03/12 02:53:27;;;;;;;5.27;2.67;;;;;;;-3.29;38.92;98857.41;6180823;28;20258;-68
2022/03/12 02:56:29;;;;;;;5.53;2.70;;;;;;;-3.25;38.69;98861.66;6180303;28;20376;-67
2022/03/12 02:59:33;;;;;;;3.03;2.20;;;;;;;-3.01;36.54;98869.25;6179834;28;20232;-69
2022/03/12 03:02:41;;;;;;;3.50;2.40;;;;;;;-3.11;37.64;98858.13;6180650;28;20237;-67
2022/03/12 03:05:47;;;;;;;5.70;2.27;;;;;;;-3.25;39.21;98864.25;6179971;28;20897;-69
2022/03/12 03:08:50;;;;;;;6.30;2.93;;;;;;;-3.20;36.76;98859.91;6179822;28;20375;-67
2022/03/12 03:11:53;;;;;;;6.10;2.40;;;;;;;-3.19;38.22;98870.22;6196594;28;20225;-67
2022/03/12 03:14:55;;;;;;;6.73;3.10;;;;;;;-3.24;37.92;98860.78;6179907;28;20229;-68
2022/03/12 03:18:02;;;;;;;4.30;2.80;;;;;;;-3.21;38.03;98865.94;6185275;28;20245;-68
2022/03/12 03:21:07;;;;;;;6.30;3.10;;;;;;;-3.40;39.84;98863.50;6179687;28;20225;-69
2022/03/12 03:24:09;;;;;;;6.13;3.60;;;;;;;-3.42;39.28;98869.50;6183623;28;20217;-67
2022/03/12 03:27:11;;;;;;;4.97;3.07;;;;;;;-3.44;39.45;98871.25;6179309;28;20241;-67
2022/03/12 03:30:13;;;;;;;4.10;3.03;;;;;;;-3.53;40.41;98882.47;6178591;28;20220;-69
2022/03/12 03:33:19;;;;;;;4.80;3.63;;;;;;;-3.61;40.94;98886.81;6179458;28;20213;-70
2022/03/12 03:36:21;;;;;;;5.17;3.60;;;;;;;-3.67;41.33;98886.81;6193897;28;20232;-67
2022/03/12 03:39:23;;;;;;;7.13;4.17;;;;;;;-3.61;41.61;98886.81;6178893;28;20604;-68
2022/03/12 03:42:25;;;;;;;6.73;3.57;;;;;;;-3.64;42.30;98884.25;6178200;28;20723;-67
2022/03/12 03:45:29;;;;;;;7.40;4.07;;;;;;;-3.67;42.71;98886.81;6184067;28;20220;-67
2022/03/12 03:48:37;;;;;;;8.30;4.57;;;;;;;-3.83;43.81;98883.47;6188047;28;20624;-67
2022/03/12 03:51:41;;;;;;;13.77;4.73;;;;;;;-3.88;43.55;98886.91;6193397;28;20760;-68
2022/03/12 03:54:44;;;;;;;7.30;4.20;;;;;;;-4.02;44.96;98889.53;6179078;28;20685;-66
2022/03/12 03:57:46;;;;;;;8.53;4.80;;;;;;;-4.07;45.47;98874.94;6180885;28;20708;-68
2022/03/12 04:00:57;;;;;;;9.20;5.23;;;;;;;-4.18;46.10;98882.69;6178385;28;20235;-66
2022/03/12 04:04:00;;;;;;;10.97;5.40;;;;;;;-4.10;45.61;98878.41;6193511;28;20236;-67
2022/03/12 04:07:04;;;;;;;11.20;5.27;;;;;;;-4.08;45.21;98871.50;6178244;28;20723;-67
2022/03/12 04:10:07;;;;;;;7.10;5.00;;;;;;;-4.12;45.74;98869.81;6192918;28;20717;-67
2022/03/12 04:13:19;;;;;;;7.10;4.30;;;;;;;-4.10;45.24;98873.25;6179424;28;20762;-67
2022/03/12 04:16:21;;;;;;;8.13;5.07;;;;;;;-4.14;45.04;98874.97;6190358;28;20237;-71
2022/03/12 04:19:26;;;;;;;6.30;4.30;;;;;;;-4.18;46.18;98882.69;6186903;28;20700;-66
2022/03/12 04:22:29;;;;;;;7.67;4.93;;;;;;;-4.25;45.43;98884.44;6181137;28;20228;-67
2022/03/12 04:25:32;;;;;;;6.83;4.43;;;;;;;-4.39;46.83;98883.59;6194552;28;20237;-67
2022/03/12 04:28:34;;;;;;;7.60;4.60;;;;;;;-4.41;46.72;98882.78;6177318;28;20629;-67
2022/03/12 04:31:36;;;;;;;7.23;4.97;;;;;;;-4.46;47.11;98875.03;6193669;28;20694;-66
2022/03/12 04:34:38;;;;;;;8.43;4.83;;;;;;;-4.42;46.06;98869.88;6178161;28;20263;-66
2022/03/12 04:37:40;;;;;;;11.00;4.57;;;;;;;-4.06;45.14;98882.66;6192269;28;20613;-67
2022/03/12 04:40:44;;;;;;;8.50;4.40;;;;;;;-4.16;45.49;98883.56;6192186;28;20233;-68
2022/03/12 04:43:50;;;;;;;9.33;4.60;;;;;;;-4.16;46.08;98871.53;6177999;28;20241;-67
2022/03/12 04:46:52;;;;;;;8.77;5.10;;;;;;;-4.27;46.87;98875.00;6181819;28;20228;-68
2022/03/12 04:49:56;;;;;;;6.87;4.37;;;;;;;-4.25;45.76;98873.28;6192594;28;20241;-68
2022/03/12 04:52:59;;;;;;;5.73;3.70;;;;;;;-4.23;45.58;98876.72;6177882;28;20552;-68
2022/03/12 04:56:01;;;;;;;6.97;4.10;;;;;;;-4.31;45.97;98866.44;6177123;28;20225;-69
2022/03/12 04:59:03;;;;;;;6.57;4.00;;;;;;;-4.30;45.48;98880.19;6177518;28;20236;-68
2022/03/12 05:02:13;;;;;;;8.10;4.60;;;;;;;-4.29;46.35;98884.47;6178760;28;20772;-67
2022/03/12 05:05:15;;;;;;;8.27;4.27;;;;;;;-4.29;45.08;98874.16;6177844;28;20241;-67
2022/03/12 05:08:24;;;;;;;7.03;4.30;;;;;;;-4.32;45.18;98879.31;6177686;28;20601;-68
2022/03/12 05:11:26;;;;;;;6.77;4.63;;;;;;;-4.30;44.91;98883.63;6177971;28;20245;-67
2022/03/12 05:14:28;;;;;;;6.97;3.90;;;;;;;-4.18;44.52;98890.44;6177622;28;20239;-68
2022/03/12 05:17:32;;;;;;;6.73;4.17;;;;;;;-4.27;45.40;98886.16;6189066;28;20268;-68
2022/03/12 05:20:37;;;;;;;7.77;4.40;;;;;;;-4.23;43.92;98892.19;6177409;28;20244;-68
2022/03/12 05:23:39;;;;;;;10.97;4.00;;;;;;;-4.25;44.10;98896.47;6186464;28;20241;-69
2022/03/12 05:26:41;;;;;;;6.47;4.57;;;;;;;-4.31;44.75;98881.03;6192626;28;20602;-68
2022/03/12 05:29:46;;;;;;;7.13;4.90;;;;;;;-4.28;44.32;98887.00;6177466;28;20240;-68
2022/03/12 05:32:49;;;;;;;7.77;4.67;;;;;;;-4.11;42.92;98880.13;6177460;28;20717;-68
2022/03/12 05:35:54;;;;;;;11.00;4.83;;;;;;;-4.18;44.14;98880.97;6177516;28;20229;-68
2022/03/12 05:38:56;;;;;;;8.47;4.17;;;;;;;-4.27;45.04;98883.59;6127829;28;20248;-68
2022/03/12 05:41:59;;;;;;;5.73;3.70;;;;;;;-4.16;43.97;98884.41;6190572;28;20783;-69
2022/03/12 05:45:09;;;;;;;12.03;5.10;;;;;;;-4.15;43.97;98886.13;6193471;28;20737;-68
2022/03/12 05:48:14;;;;;;;9.33;5.17;;;;;;;-4.21;44.70;98864.69;6190843;28;20230;-68
2022/03/12 05:51:17;;;;;;;8.70;3.87;;;;;;;-4.15;43.80;98882.69;6176244;28;20232;-68
2022/03/12 05:54:18;;;;;;;6.37;4.83;;;;;;;-4.16;43.74;98868.09;6182167;28;20618;-68
2022/03/12 05:57:21;;;;;;;7.70;4.63;;;;;;;-4.11;44.09;98882.69;6180946;28;20213;-68
2022/03/12 06:00:22;;;;;;;11.87;5.00;;;;;;;-4.14;44.38;98861.22;6181045;28;20229;-67
2022/03/12 06:03:34;;;;;;;8.97;5.00;;;;;;;-4.06;43.36;98867.19;6180959;28;20724;-68
2022/03/12 06:06:36;;;;;;;9.67;4.87;;;;;;;-3.95;42.55;98865.44;6194684;28;20759;-67
2022/03/12 06:09:37;;;;;;;10.13;4.73;;;;;;;-3.96;42.81;98865.44;6181012;28;20217;-68
2022/03/12 06:12:42;;;;;;;7.33;4.40;;;;;;;-3.94;43.37;98863.72;6180998;28;20228;-68
2022/03/12 06:15:45;;;;;;;8.40;4.53;;;;;;;-3.98;43.49;98870.59;6188629;28;20248;-68
2022/03/12 06:18:47;;;;;;;5.43;3.97;;;;;;;-3.98;43.52;98873.19;6200758;28;20224;-67
2022/03/12 06:21:49;;;;;;;7.67;4.53;;;;;;;-3.92;42.79;98883.50;6195475;28;20703;-67
2022/03/12 06:24:52;;;;;;;6.33;4.30;;;;;;;-3.88;43.04;98877.44;6203726;28;20247;-67
2022/03/12 06:27:54;;;;;;;7.80;4.30;;;;;;;-3.78;42.18;98875.69;6180038;28;20225;-67
2022/03/12 06:30:56;;;;;;;7.03;4.47;;;;;;;-3.73;42.18;98872.25;6180525;28;20225;-68
2022/03/12 06:33:58;;;;;;;7.20;3.90;;;;;;;-3.68;42.08;98879.09;6180948;28;20642;-68
2022/03/12 06:37:05;;;;;;;5.27;3.80;;;;;;;-3.70;43.48;98870.53;6194292;28;20257;-68
2022/03/12 06:40:10;;;;;;;6.90;4.43;;;;;;;-3.72;43.25;98883.41;6194880;28;20690;-67
2022/03/12 06:43:19;;;;;;;7.17;4.10;;;;;;;-3.71;43.55;98885.13;6180068;28;20965;-67
2022/03/12 06:46:21;;;;;;;7.33;4.00;;;;;;;-3.74;43.59;98886.00;6188440;28;20335;-67
2022/03/12 06:49:24;;;;;;;7.13;4.43;;;;;;;-3.65;42.61;98895.41;6179694;28;20268;-67
2022/03/12 06:52:28;;;;;;;6.27;4.10;;;;;;;-3.54;43.00;98896.22;6180448;28;20728;-67
2022/03/12 06:55:31;;;;;;;5.50;4.10;;;;;;;-3.47;42.67;98892.75;6179442;28;20233;-67
2022/03/12 06:58:33;;;;;;;8.50;4.43;;;;;;;-3.44;42.91;98900.47;6179352;28;20236;-67
2022/03/12 07:01:35;;;;;;;7.10;4.27;;;;;;;-3.41;43.10;98894.44;6179290;28;20732;-68
2022/03/12 07:04:38;;;;;;;9.27;4.80;;;;;;;-3.35;42.24;98889.25;6178671;28;20341;-68
2022/03/12 07:07:40;;;;;;;7.67;4.13;;;;;;;-3.23;41.88;98888.31;6179620;28;20340;-69
2022/03/12 07:10:42;;;;;;;10.90;4.90;;;;;;;-3.12;41.52;98884.81;6194772;28;20229;-68
2022/03/12 07:13:44;;;;;;;6.00;4.07;;;;;;;-3.05;41.49;98883.91;6179517;28;20637;-68
2022/03/12 07:16:46;;;;;;;6.90;4.53;;;;;;;-3.02;41.19;98888.19;6195379;28;20232;-68
2022/03/12 07:19:48;;;;;;;6.97;4.57;;;;;;;-2.98;42.11;98880.38;6179341;28;20233;-67
2022/03/12 07:22:50;;;;;;;6.13;4.67;;;;;;;-2.88;41.95;98885.50;6186147;28;20626;-68
2022/03/12 07:25:52;;;;;;;7.47;4.77;;;;;;;-2.88;43.19;98890.66;6184724;28;20228;-68
2022/03/12 07:28:54;;;;;;;8.00;4.30;;;;;;;-2.72;41.38;98898.28;6177900;28;20229;-68
2022/03/12 07:31:56;;;;;;;6.63;4.07;;;;;;;-2.68;41.65;98897.38;6179262;28;20450;-68
2022/03/12 07:34:58;;;;;;;6.57;4.10;;;;;;;-2.68;41.36;98902.53;6193739;28;20236;-68
2022/03/12 07:38:01;;;;;;;5.93;3.93;;;;;;;-2.54;40.99;98892.09;6193379;28;20248;-68
2022/03/12 07:41:03;;;;;;;8.73;4.73;;;;;;;-2.43;40.89;98894.59;6193969;28;20229;-68
2022/03/12 07:44:07;;;;;;;9.13;4.30;;;;;;;-2.25;40.75;98894.41;6179104;28;20233;-69
2022/03/12 07:47:09;;;;;;;6.47;4.27;;;;;;;-2.12;40.65;98895.16;6198600;28;20711;-67
2022/03/12 07:50:12;;;;;;;6.67;4.10;;;;;;;-1.93;39.51;98896.69;6184424;28;20229;-68
2022/03/12 07:53:14;;;;;;;6.67;4.30;;;;;;;-1.64;38.67;98889.44;6180287;28;20232;-68
2022/03/12 07:56:17;;;;;;;7.67;4.80;;;;;;;-1.38;38.07;98891.66;6178992;28;20743;-68
2022/03/12 07:59:20;;;;;;;6.17;4.10;;;;;;;-1.12;37.94;98893.94;6178861;28;20248;-69
2022/03/12 08:02:21;;;;;;;7.40;4.57;;;;;;;-0.88;37.97;98888.38;6178625;28;20229;-68
2022/03/12 08:05:25;;;;;;;14.77;4.80;;;;;;;-0.59;36.79;98890.50;6193001;28;20232;-69
2022/03/12 08:08:30;;;;;;;8.90;4.67;;;;;;;-0.17;36.51;98888.91;6191749;28;20273;-67
2022/03/12 08:11:32;;;;;;;8.37;4.40;;;;;;;0.19;35.39;98896.91;6192334;28;20225;-68
2022/03/12 08:14:34;;;;;;;7.63;4.20;;;;;;;0.42;34.96;98894.69;6178368;28;20237;-67
2022/03/12 08:17:36;;;;;;;5.73;3.37;;;;;;;0.73;33.91;98882.78;6183526;28;20693;-68
2022/03/12 08:20:39;;;;;;;6.87;4.40;;;;;;;0.72;33.67;98885.41;6177437;28;20315;-68
2022/03/12 08:23:42;;;;;;;7.00;4.23;;;;;;;0.87;33.39;98886.81;6196409;28;20226;-68
2022/03/12 08:26:46;;;;;;;6.73;3.97;;;;;;;1.42;33.07;98881.19;6177825;28;20344;-68
2022/03/12 08:29:48;;;;;;;6.43;4.60;;;;;;;1.70;32.43;98879.59;6176464;28;20224;-68
2022/03/12 08:32:52;;;;;;;5.87;4.00;;;;;;;2.02;31.68;98876.16;6196339;28;20593;-68
2022/03/12 08:35:56;;;;;;;6.13;3.87;;;;;;;2.33;31.33;98870.97;6177856;28;20257;-68
2022/03/12 08:38:58;;;;;;;7.17;4.50;;;;;;;2.89;31.01;98864.09;6177576;28;20610;-68
2022/03/12 08:41:59;;;;;;;6.37;4.53;;;;;;;2.73;29.91;98862.84;6192181;28;20237;-68
2022/03/12 08:45:02;;;;;;;8.57;4.90;;;;;;;2.84;30.50;98862.50;6194213;28;20242;-69
2022/03/12 08:48:04;;;;;;;6.43;4.33;;;;;;;3.40;30.43;98860.72;6188469;28;20611;-68
2022/03/12 08:51:07;;;;;;;5.27;3.83;;;;;;;3.61;29.71;98864.38;6175262;28;20205;-68
2022/03/12 08:54:09;;;;;;;9.70;4.47;;;;;;;4.04;30.28;98863.78;6173822;28;20763;-68
2022/03/12 08:57:11;;;;;;;6.37;4.63;;;;;;;4.39;29.71;98852.06;6176872;28;20207;-68
2022/03/12 09:00:15;;;;;;;5.30;3.63;;;;;;;4.36;29.03;98866.09;6177665;28;20743;-68
2022/03/12 09:03:17;;;;;;;6.80;4.23;;;;;;;4.38;28.29;98855.59;6192038;28;20213;-69
2022/03/12 09:06:19;;;;;;;6.17;4.40;;;;;;;4.29;28.12;98853.31;6191821;28;20211;-70
2022/03/12 09:09:21;;;;;;;8.93;4.30;;;;;;;4.65;28.18;98865.03;6176953;28;20722;-69
2022/03/12 09:12:25;;;;;;;6.40;4.47;;;;;;;4.89;27.81;98846.69;6177238;28;20231;-68
2022/03/12 09:15:27;;;;;;;6.27;4.33;;;;;;;4.63;26.69;98847.69;6198180;28;20226;-68
2022/03/12 09:18:29;;;;;;;7.73;4.37;;;;;;;5.24;27.18;98848.78;6195467;28;20250;-68
2022/03/12 09:21:31;;;;;;;7.40;4.57;;;;;;;5.53;26.06;98850.19;6192108;28;20234;-68
2022/03/12 09:24:34;;;;;;;6.97;4.67;;;;;;;5.45;26.08;98839.19;6213771;28;20242;-69
2022/03/12 09:27:36;;;;;;;7.30;4.53;;;;;;;5.94;26.36;98843.25;6180223;28;20229;-68
2022/03/12 09:30:39;;;;;;;7.17;4.20;;;;;;;5.88;25.38;98839.16;6181813;28;20232;-69
2022/03/12 09:33:41;;;;;;;6.63;4.10;;;;;;;6.24;25.40;98826.19;6196826;28;20231;-70
2022/03/12 09:36:42;;;;;;;5.27;4.00;;;;;;;6.54;24.76;98825.72;6180598;28;20531;-68
2022/03/12 09:39:45;;;;;;;6.13;4.10;;;;;;;6.65;25.35;98823.47;6181557;28;20233;-68
2022/03/12 09:42:47;;;;;;;7.17;4.53;;;;;;;6.36;24.03;98819.56;6180853;28;20232;-68
2022/03/12 09:45:49;;;;;;;6.77;4.50;;;;;;;6.01;24.55;98822.88;6201101;28;20235;-68
2022/03/12 09:48:53;;;;;;;6.73;3.47;;;;;;;6.18;23.78;98813.38;6181244;28;20323;-69
2022/03/12 09:51:57;;;;;;;6.43;4.30;;;;;;;6.00;24.37;98815.91;6181565;28;20236;-68
2022/03/12 09:55:00;;;;;;;6.10;4.00;;;;;;;6.02;25.48;98811.47;6179567;28;20237;-68
2022/03/12 09:58:02;;;;;;;6.30;4.40;;;;;;;6.07;23.32;98807.75;6180778;28;20598;-68
2022/03/12 10:01:03;;;;;;;9.07;4.33;;;;;;;6.41;23.63;98814.09;6181931;28;20441;-69
2022/03/12 10:04:06;;;;;;;7.40;4.00;;;;;;;6.42;23.50;98798.28;6196123;28;20249;-68
2022/03/12 10:07:08;;;;;;;9.60;3.97;;;;;;;6.21;24.55;98796.63;6196126;28;20377;-68
2022/03/12 10:10:15;;;;;;;5.43;3.60;;;;;;;6.47;23.15;98801.56;6179628;28;20244;-68
2022/03/12 10:13:17;;;;;;;5.77;3.40;;;;;;;6.97;23.51;98800.97;6181386;28;20241;-69
2022/03/12 10:16:19;;;;;;;5.23;3.50;;;;;;;7.20;22.34;98803.31;6192392;28;20236;-69
2022/03/12 10:19:21;;;;;;;5.47;4.23;;;;;;;7.69;23.09;98796.47;6165141;28;20721;-68
2022/03/12 10:22:23;;;;;;;8.50;4.20;;;;;;;7.86;22.51;98792.16;6198201;28;20224;-68
2022/03/12 10:25:25;;;;;;;6.37;3.60;;;;;;;7.89;21.58;98791.97;6190481;28;20235;-68
2022/03/12 10:28:29;;;;;;;4.13;3.43;;;;;;;8.24;21.45;98771.75;6180373;28;20723;-68
2022/03/12 10:31:31;;;;;;;7.77;4.00;;;;;;;7.46;20.65;98777.56;6180521;28;20236;-68
2022/03/12 10:34:33;;;;;;;4.10;3.37;;;;;;;7.56;21.34;98763.03;6180779;28;20469;-68
2022/03/12 10:37:35;;;;;;;6.27;3.30;;;;;;;7.85;21.26;98772.06;6179698;28;20238;-68
2022/03/12 10:40:38;;;;;;;6.60;3.37;;;;;;;8.04;20.40;98765.75;6180007;28;20266;-68
2022/03/12 10:43:54;;;;;;;5.80;2.97;;;;;;;7.96;20.73;98760.06;6207903;28;20238;-70
2022/03/12 10:46:56;;;;;;;4.13;3.13;;;;;;;8.46;19.76;98753.91;6180481;28;20261;-68
2022/03/12 10:50:04;;;;;;;5.70;3.03;;;;;;;8.73;20.73;98751.53;6212034;28;20271;-69
2022/03/12 10:53:06;;;;;;;3.77;3.13;;;;;;;8.61;18.75;98753.06;6179882;28;20244;-71
2022/03/12 10:56:08;;;;;;;3.43;2.90;;;;;;;8.03;19.31;98769.31;6180114;28;20267;-69
2022/03/12 10:59:24;;;;;;;5.40;3.47;;;;;;;8.18;19.57;98756.31;6179388;28;20238;-69
2022/03/12 11:02:33;;;;;;;2.70;2.40;;;;;;;8.51;18.35;98739.56;6180275;28;20244;-68
2022/03/12 11:05:36;;;;;;;4.80;3.07;;;;;;;8.13;19.62;98754.75;6194440;28;20727;-69
2022/03/12 11:08:38;;;;;;;3.53;2.93;;;;;;;8.18;18.86;98746.63;6177387;28;20609;-68
2022/03/12 11:11:43;;;;;;;3.67;2.80;;;;;;;8.06;19.00;98742.88;6210001;28;20330;-68
2022/03/12 11:15:10;;;;;;;4.27;3.00;;;;;;;8.49;18.45;98735.31;6180034;28;20231;-69
2022/03/12 11:18:12;;;;;;;3.57;3.00;;;;;;;8.61;17.40;98728.53;6155018;28;20222;-67
2022/03/12 11:21:25;;;;;;;5.50;2.70;;;;;;;8.83;18.11;98726.38;6154150;28;20218;-67
2022/03/12 11:24:42;;;;;;;6.10;2.57;;;;;;;8.61;18.32;98726.75;6189346;28;20231;-70
2022/03/12 11:27:49;;;;;;;5.60;2.87;;;;;;;8.28;17.88;98724.16;6160700;28;20712;-68
2022/03/12 11:30:51;;;;;;;4.63;2.70;;;;;;;8.47;18.11;98703.00;6155102;28;20752;-67
2022/03/12 11:33:54;;;;;;;4.30;3.07;;;;;;;9.07;18.52;98711.00;6155634;28;20249;-66
2022/03/12 11:37:06;;;;;;;3.97;2.50;;;;;;;9.65;16.92;98695.22;6153511;28;20235;-66
2022/03/12 11:40:16;;;;;;;3.57;2.77;;;;;;;9.54;16.90;98709.03;6155005;28;20236;-67
2022/03/12 11:43:27;;;;;;;3.17;2.50;;;;;;;9.91;17.69;98704.19;6155766;28;20237;-67
2022/03/12 11:46:36;;;;;;;2.93;2.13;;;;;;;9.69;16.16;98704.63;6165154;28;20708;-66
2022/03/12 11:49:39;;;;;;;5.00;2.27;;;;;;;9.72;17.36;98693.91;6154364;28;20369;-68
2022/03/12 11:52:46;;;;;;;4.53;2.50;;;;;;;9.82;16.21;98699.47;6154978;28;20234;-68
2022/03/12 11:55:51;;;;;;;4.43;2.67;;;;;;;9.47;16.44;98691.91;6153466;28;20713;-67
2022/03/12 11:58:53;;;;;;;5.17;2.93;;;;;;;9.91;16.43;98681.28;6154032;28;20229;-67
2022/03/12 12:02:23;;;;;;;4.73;3.03;;;;;;;9.57;16.02;98689.56;6154506;28;20732;-68
2022/03/12 12:05:29;;;;;;;4.57;2.80;;;;;;;9.82;16.50;98678.38;6153453;28;20226;-68
2022/03/12 12:08:36;;;;;;;4.57;2.57;;;;;;;9.50;15.71;98661.88;6168540;28;20646;-67
2022/03/12 12:11:38;;;;;;;4.53;2.57;;;;;;;9.58;15.87;98678.91;6154942;28;20242;-68
2022/03/12 12:14:43;;;;;;;2.77;2.47;;;;;;;9.96;15.63;98666.06;6168506;28;20635;-68
2022/03/12 12:17:47;;;;;;;3.27;2.70;;;;;;;10.11;16.29;98664.22;6172830;28;20719;-68
2022/03/12 12:20:49;;;;;;;4.73;2.63;;;;;;;10.22;16.09;98655.69;6154757;28;20229;-69
2022/03/12 12:23:51;;;;;;;3.87;2.67;;;;;;;10.58;16.08;98648.03;6169300;28;20649;-68
2022/03/12 12:27:02;;;;;;;3.67;2.63;;;;;;;10.81;16.33;98646.53;6154394;28;20698;-70
2022/03/12 12:30:05;;;;;;;2.60;2.13;;;;;;;11.73;15.88;98649.09;6177049;28;20244;-67
2022/03/12 12:33:27;;;;;;;3.73;2.63;;;;;;;12.22;15.26;98646.53;6154031;28;20225;-67
2022/03/12 12:36:29;;;;;;;4.37;2.70;;;;;;;11.97;15.16;98642.13;6153234;28;20230;-68
2022/03/12 12:39:32;;;;;;;3.77;3.10;;;;;;;11.14;14.40;98643.47;6147650;28;20748;-69
2022/03/12 12:42:40;;;;;;;3.27;2.73;;;;;;;10.79;15.13;98644.94;6178012;28;20256;-67
2022/03/12 12:45:55;;;;;;;3.93;2.93;;;;;;;10.68;15.44;98640.41;6178093;28;20238;-67
2022/03/12 12:49:01;;;;;;;4.40;2.50;;;;;;;10.51;15.09;98635.34;6192192;28;20245;-68
2022/03/12 12:52:03;;;;;;;5.13;2.70;;;;;;;10.85;15.61;98632.19;6176821;28;20229;-68
2022/03/12 12:55:06;;;;;;;4.40;2.63;;;;;;;11.66;15.29;98630.19;6178935;28;20256;-68
2022/03/12 12:58:09;;;;;;;4.17;2.30;;;;;;;10.67;14.26;98621.06;6192262;28;20640;-68
2022/03/12 13:01:17;;;;;;;6.07;2.40;;;;;;;10.96;15.09;98629.69;6209438;28;20329;-69
2022/03/12 13:04:46;;;;;;;3.13;2.37;;;;;;;11.27;14.47;98617.91;6183390;28;20240;-67
2022/03/12 13:08:02;;;;;;;5.03;2.87;;;;;;;11.26;14.78;98613.56;6196911;28;20222;-66
2022/03/12 13:11:30;;;;;;;5.70;3.27;;;;;;;11.68;15.01;98608.94;6183053;28;20713;-66
2022/03/12 13:14:43;;;;;;;4.53;2.83;;;;;;;11.56;14.75;98610.63;6181504;28;20730;-66
2022/03/12 13:17:46;;;;;;;3.47;2.90;;;;;;;12.14;14.63;98615.31;6190511;28;20741;-66
2022/03/12 13:20:54;;;;;;;3.37;2.43;;;;;;;12.08;14.41;98606.97;6197903;28;20721;-67
2022/03/12 13:23:57;;;;;;;3.13;2.63;;;;;;;12.63;14.80;98592.38;6182154;28;20236;-67
2022/03/12 13:27:00;;;;;;;3.80;3.03;;;;;;;12.82;13.73;98588.22;6196919;28;20703;-67
2022/03/12 13:30:05;;;;;;;3.33;2.77;;;;;;;13.00;13.75;98587.81;6181061;28;20619;-66
2022/03/12 13:33:10;;;;;;;4.60;2.70;;;;;;;14.47;12.13;98591.28;6172809;28;20794;-67
2022/03/12 13:36:21;;;;;;;3.80;2.53;;;;;;;15.47;11.63;98566.84;6157755;28;20208;-66
2022/03/12 13:39:24;;;;;;;3.63;2.80;;;;;;;16.26;11.41;98570.53;6158130;28;20336;-70
2022/03/12 13:42:27;;;;;;;3.77;2.90;;;;;;;18.02;11.46;98572.75;6158045;28;20227;-66
2022/03/12 13:45:33;;;;;;;4.97;3.23;;;;;;;18.30;10.79;98564.69;6177979;28;20228;-67
2022/03/12 13:48:35;;;;;;;7.37;3.07;;;;;;;19.95;9.91;98570.28;6168495;28;20222;-67
2022/03/12 13:51:48;;;;;;;4.30;2.43;;;;;;;21.58;9.02;98561.47;6157449;28;20825;-68
2022/03/12 13:55:04;;;;;;;3.90;2.90;;;;;;;22.37;8.50;98556.00;6157697;28;20613;-67
2022/03/12 13:58:06;;;;;;;3.40;2.57;;;;;;;21.57;8.60;98557.94;6157743;28;20243;-67
2022/03/12 14:01:10;;;;;;;3.93;2.87;;;;;;;20.92;8.75;98551.78;6157544;28;20250;-66
2022/03/12 14:04:18;;;;;;;3.83;2.60;;;;;;;20.25;9.06;98554.50;6157374;28;20725;-68
2022/03/12 14:07:41;;;;;;;4.70;3.10;;;;;;;20.78;8.81;98555.09;6154813;28;20622;-66
2022/03/12 14:10:49;;;;;;;3.07;2.43;;;;;;;19.64;9.61;98557.41;6157523;28;20251;-67
2022/03/12 14:13:58;;;;;;;3.23;2.80;;;;;;;16.97;10.60;98553.31;6158024;28;20262;-67
2022/03/12 14:17:03;;;;;;;3.63;2.90;;;;;;;14.87;11.69;98563.09;6188256;28;20386;-67
2022/03/12 14:20:09;;;;;;;5.00;2.87;;;;;;;12.28;13.67;98561.38;6157428;28;20243;-67
2022/03/12 14:23:12;;;;;;;3.43;2.83;;;;;;;10.82;14.45;98554.97;6166145;28;20233;-66
2022/03/12 14:26:23;;;;;;;3.73;2.70;;;;;;;10.24;16.12;98558.81;6169629;28;20241;-69
2022/03/12 14:29:27;;;;;;;5.67;3.00;;;;;;;9.47;15.54;98556.69;6157616;28;20241;-68
2022/03/12 14:32:31;;;;;;;4.10;2.67;;;;;;;9.37;15.99;98553.78;6175792;28;20233;-67